Time;durP1;ratioP1;P1;durP2;ratioP2;P2;SDS_P1;SDS_P2;PMS_P1;PMS_P2;Temp;Humidity;BMP_temperature;BMP_pressure;BME280_temperature;BME280_humidity;BME280_pressure;Samples;Min_cycle;Max_cycle;Signal;HPM_P1;HPM_P2
2022/05/28 00:04:46;;;;;;;1.90;0.50;;;;;;;;;;10437933;28;20256;-74
2022/05/28 00:09:47;;;;;;;4.60;0.40;;;;;;;;;;10425580;28;20631;-73
2022/05/28 00:14:48;;;;;;;4.57;0.70;;;;;;;;;;10445915;28;20281;-75
2022/05/28 00:19:49;;;;;;;3.95;0.70;;;;;;;;;;10467525;28;20279;-75
2022/05/28 00:24:50;;;;;;;1.85;0.40;;;;;;;;;;10465715;28;20206;-74
2022/05/28 00:29:51;;;;;;;4.97;0.60;;;;;;;;;;10444825;28;20194;-75
2022/05/28 00:34:52;;;;;;;4.20;1.35;;;;;;;;;;10443731;28;20291;-75
2022/05/28 00:39:53;;;;;;;9.63;0.60;;;;;;;;;;10419615;28;20198;-75
2022/05/28 00:44:55;;;;;;;4.05;0.52;;;;;;;;;;10391812;28;20197;-75
2022/05/28 00:49:56;;;;;;;4.65;1.25;;;;;;;;;;10435396;28;20261;-75
2022/05/28 00:54:58;;;;;;;5.43;0.50;;;;;;;;;;10402285;28;20250;-75
2022/05/28 00:59:59;;;;;;;4.95;0.70;;;;;;;;;;10446624;28;20593;-75
2022/05/28 01:05:11;;;;;;;3.05;0.45;;;;;;;;;;10450623;28;20367;-77
2022/05/28 01:10:15;;;;;;;2.83;0.50;;;;;;;;;;10447468;28;20210;-74
2022/05/28 01:15:45;;;;;;;1.80;0.47;;;;;;;;;;10451435;28;20206;-73
2022/05/28 01:20:49;;;;;;;3.35;0.52;;;;;;;;;;10449556;28;20214;-73
2022/05/28 01:25:50;;;;;;;1.13;0.60;;;;;;;;;;10448514;28;20207;-74
2022/05/28 01:30:51;;;;;;;2.92;0.30;;;;;;;;;;10446973;28;20638;-75
2022/05/28 01:35:53;;;;;;;1.33;0.38;;;;;;;;;;10424350;28;20198;-73
2022/05/28 01:40:54;;;;;;;1.40;0.40;;;;;;;;;;10469578;28;20812;-74
2022/05/28 01:45:56;;;;;;;3.47;0.70;;;;;;;;;;10449623;28;20335;-75
2022/05/28 01:50:58;;;;;;;1.23;0.50;;;;;;;;;;10469943;28;20688;-74
2022/05/28 01:56:00;;;;;;;2.88;0.50;;;;;;;;;;10470474;28;20193;-74
2022/05/28 02:01:02;;;;;;;2.75;0.55;;;;;;;;;;10464545;28;20735;-74
2022/05/28 02:06:03;;;;;;;0.90;0.30;;;;;;;;;;10468717;28;20218;-73
2022/05/28 02:11:10;;;;;;;0.40;0.25;;;;;;;;;;10437020;28;20241;-74
2022/05/28 02:16:14;;;;;;;1.67;0.30;;;;;;;;;;10443177;28;20257;-73
2022/05/28 02:21:24;;;;;;;2.40;0.57;;;;;;;;;;10426073;28;20277;-74
2022/05/28 02:26:43;;;;;;;1.40;0.50;;;;;;;;;;10405912;28;20214;-74
2022/05/28 02:31:45;;;;;;;2.50;0.60;;;;;;;;;;10443176;28;20212;-74
2022/05/28 02:36:46;;;;;;;1.52;0.40;;;;;;;;;;10453040;28;20205;-73
2022/05/28 02:41:48;;;;;;;3.22;0.80;;;;;;;;;;10446902;28;20198;-72
2022/05/28 02:46:49;;;;;;;4.50;0.60;;;;;;;;;;10432571;28;20201;-73
2022/05/28 02:51:50;;;;;;;4.68;0.60;;;;;;;;;;10448092;28;20230;-72
2022/05/28 02:56:51;;;;;;;3.47;0.65;;;;;;;;;;10450826;28;20205;-74
2022/05/28 03:01:52;;;;;;;4.43;0.30;;;;;;;;;;10459470;28;20318;-73
2022/05/28 03:06:54;;;;;;;2.08;0.50;;;;;;;;;;10441001;28;20256;-74
2022/05/28 03:11:55;;;;;;;0.95;0.40;;;;;;;;;;10435866;28;20222;-74
2022/05/28 03:16:56;;;;;;;2.95;0.73;;;;;;;;;;10440644;28;20194;-74
2022/05/28 03:21:57;;;;;;;1.38;0.40;;;;;;;;;;10443465;28;20265;-72
2022/05/28 03:26:59;;;;;;;1.40;0.57;;;;;;;;;;10444049;28;20206;-73
2022/05/28 03:32:00;;;;;;;2.17;0.50;;;;;;;;;;10404842;28;20221;-74
2022/05/28 03:37:01;;;;;;;1.90;0.50;;;;;;;;;;10416530;28;20218;-75
2022/05/28 03:42:02;;;;;;;3.95;0.70;;;;;;;;;;10460125;28;20194;-73
2022/05/28 03:47:04;;;;;;;4.63;0.70;;;;;;;;;;10461310;28;20238;-74
2022/05/28 03:52:05;;;;;;;2.90;0.85;;;;;;;;;;10448364;28;20244;-72
2022/05/28 03:57:09;;;;;;;1.58;0.50;;;;;;;;;;10448754;28;20204;-74
2022/05/28 04:02:10;;;;;;;3.88;0.70;;;;;;;;;;10454643;28;20582;-73
2022/05/28 04:07:11;;;;;;;4.68;0.90;;;;;;;;;;10441774;28;20222;-73
2022/05/28 04:12:13;;;;;;;1.83;0.70;;;;;;;;;;10432497;28;20264;-74
2022/05/28 04:17:14;;;;;;;9.07;0.95;;;;;;;;;;10433988;28;20198;-75
2022/05/28 04:22:15;;;;;;;5.35;0.60;;;;;;;;;;10433282;28;20208;-75
2022/05/28 04:27:16;;;;;;;5.65;0.80;;;;;;;;;;10446700;28;20221;-74
2022/05/28 04:32:18;;;;;;;2.28;0.50;;;;;;;;;;10423474;28;20283;-73
2022/05/28 04:37:19;;;;;;;6.38;0.90;;;;;;;;;;10417024;28;20229;-74
2022/05/28 04:42:20;;;;;;;8.68;1.92;;;;;;;;;;10432881;28;20204;-74
2022/05/28 04:47:20;;;;;;;8.65;1.25;;;;;;;;;;10427384;28;20205;-74
2022/05/28 04:52:22;;;;;;;4.32;0.85;;;;;;;;;;10462909;28;20218;-74
2022/05/28 04:57:23;;;;;;;2.42;0.73;;;;;;;;;;10445446;28;20624;-75
2022/05/28 05:02:24;;;;;;;4.28;0.70;;;;;;;;;;10426532;28;20646;-74
2022/05/28 05:07:25;;;;;;;3.63;0.70;;;;;;;;;;10422395;28;20226;-76
2022/05/28 05:12:26;;;;;;;7.53;1.00;;;;;;;;;;10395829;28;20229;-75
2022/05/28 05:17:27;;;;;;;6.00;1.10;;;;;;;;;;10428263;28;20717;-76
2022/05/28 05:22:28;;;;;;;6.43;1.33;;;;;;;;;;10427451;28;20730;-76
2022/05/28 05:27:29;;;;;;;4.95;0.70;;;;;;;;;;10458294;28;20313;-76
2022/05/28 05:32:30;;;;;;;6.32;0.95;;;;;;;;;;10438824;28;20670;-76
2022/05/28 05:37:32;;;;;;;6.88;1.08;;;;;;;;;;10430286;28;21042;-75
2022/05/28 05:42:33;;;;;;;9.15;1.08;;;;;;;;;;10457099;28;20191;-76
2022/05/28 05:47:34;;;;;;;6.22;1.35;;;;;;;;;;10423089;28;20281;-75
2022/05/28 05:52:39;;;;;;;7.40;1.40;;;;;;;;;;10448611;28;20225;-74
2022/05/28 05:57:44;;;;;;;5.05;1.15;;;;;;;;;;10427278;28;20206;-73
2022/05/28 06:02:45;;;;;;;6.45;1.17;;;;;;;;;;10433924;28;20237;-75
2022/05/28 06:07:46;;;;;;;5.57;0.98;;;;;;;;;;10452093;28;20221;-74
2022/05/28 06:12:47;;;;;;;2.47;0.77;;;;;;;;;;10447788;28;20213;-74
2022/05/28 06:17:48;;;;;;;2.50;0.68;;;;;;;;;;10451284;28;20212;-73
2022/05/28 06:22:49;;;;;;;4.05;0.95;;;;;;;;;;10471389;28;20266;-75
2022/05/28 06:27:50;;;;;;;2.60;0.70;;;;;;;;;;10398045;28;20218;-74
2022/05/28 06:32:51;;;;;;;4.93;0.68;;;;;;;;;;10416828;28;20298;-73
2022/05/28 06:37:52;;;;;;;6.38;0.90;;;;;;;;;;10430443;28;20213;-74
2022/05/28 06:42:56;;;;;;;3.45;1.13;;;;;;;;;;10420581;28;20284;-74
2022/05/28 06:47:57;;;;;;;4.82;0.85;;;;;;;;;;10431568;28;20206;-72
2022/05/28 06:52:58;;;;;;;7.93;1.00;;;;;;;;;;10424017;28;20217;-73
2022/05/28 06:57:59;;;;;;;5.90;1.33;;;;;;;;;;10448384;28;20721;-75
2022/05/28 07:03:00;;;;;;;3.13;0.68;;;;;;;;;;10448493;28;20210;-74
2022/05/28 07:08:01;;;;;;;8.18;0.80;;;;;;;;;;10425742;28;20254;-75
2022/05/28 07:13:03;;;;;;;7.85;1.02;;;;;;;;;;10421605;28;20610;-73
2022/05/28 07:18:04;;;;;;;8.10;1.15;;;;;;;;;;10433200;28;20198;-74
2022/05/28 07:23:13;;;;;;;8.27;0.90;;;;;;;;;;10406850;28;20214;-73
2022/05/28 07:28:31;;;;;;;5.18;1.05;;;;;;;;;;10422703;28;20190;-74
2022/05/28 07:33:33;;;;;;;5.40;0.95;;;;;;;;;;10432305;28;20353;-74
2022/05/28 07:38:35;;;;;;;6.60;1.33;;;;;;;;;;10423165;28;20209;-74
2022/05/28 07:43:36;;;;;;;3.35;1.00;;;;;;;;;;10424601;28;20260;-74
2022/05/28 07:48:37;;;;;;;5.35;1.10;;;;;;;;;;10415650;28;20194;-75
2022/05/28 07:53:39;;;;;;;10.80;1.23;;;;;;;;;;10429846;28;20217;-74
2022/05/28 07:58:40;;;;;;;3.70;0.95;;;;;;;;;;10425988;28;21043;-74
2022/05/28 08:03:41;;;;;;;5.05;1.00;;;;;;;;;;10428507;28;20959;-74
2022/05/28 08:08:42;;;;;;;8.57;1.20;;;;;;;;;;10423692;28;20233;-74
2022/05/28 08:13:43;;;;;;;3.38;1.30;;;;;;;;;;10417339;28;21008;-73
2022/05/28 08:18:44;;;;;;;7.35;1.05;;;;;;;;;;10398875;28;20252;-74
2022/05/28 08:23:45;;;;;;;8.95;0.93;;;;;;;;;;10420386;28;20326;-74
2022/05/28 08:28:50;;;;;;;6.85;1.15;;;;;;;;;;10427070;28;20203;-74
2022/05/28 08:33:51;;;;;;;5.22;0.98;;;;;;;;;;10425802;28;20226;-75
2022/05/28 08:38:52;;;;;;;4.97;1.48;;;;;;;;;;10422353;28;20229;-74
2022/05/28 08:44:00;;;;;;;7.25;0.75;;;;;;;;;;10418507;28;20264;-74
2022/05/28 08:49:02;;;;;;;6.68;0.88;;;;;;;;;;10414741;28;20264;-74
2022/05/28 08:54:17;;;;;;;5.30;0.88;;;;;;;;;;10393829;28;20313;-75
2022/05/28 08:59:21;;;;;;;4.47;0.73;;;;;;;;;;10413357;28;20199;-74
2022/05/28 09:04:28;;;;;;;5.72;0.85;;;;;;;;;;10407433;28;20264;-74
2022/05/28 09:09:42;;;;;;;6.78;0.90;;;;;;;;;;10434566;28;20217;-73
2022/05/28 09:14:44;;;;;;;4.40;1.08;;;;;;;;;;10409710;28;20207;-74
2022/05/28 09:19:45;;;;;;;2.28;0.65;;;;;;;;;;10421195;28;20226;-74
2022/05/28 09:24:46;;;;;;;5.93;2.30;;;;;;;;;;10439034;28;20278;-75
2022/05/28 09:30:08;;;;;;;3.15;0.82;;;;;;;;;;10445893;28;21032;-75
2022/05/28 09:35:12;;;;;;;4.35;1.02;;;;;;;;;;10433665;28;20260;-75
2022/05/28 09:40:31;;;;;;;9.40;1.40;;;;;;;;;;10447783;28;20631;-76
2022/05/28 09:45:48;;;;;;;2.03;1.05;;;;;;;;;;10439836;28;20680;-74
2022/05/28 09:50:50;;;;;;;5.20;1.08;;;;;;;;;;10442647;28;20567;-76
2022/05/28 09:55:56;;;;;;;4.20;0.80;;;;;;;;;;10439319;28;20207;-76
2022/05/28 10:01:04;;;;;;;5.10;1.08;;;;;;;;;;10428919;28;20211;-75
2022/05/28 10:06:10;;;;;;;5.10;1.00;;;;;;;;;;10418316;28;20305;-75
2022/05/28 10:11:14;;;;;;;2.58;0.82;;;;;;;;;;10440985;28;20972;-76
2022/05/28 10:16:19;;;;;;;8.75;1.00;;;;;;;;;;10450494;28;20201;-76
2022/05/28 10:21:32;;;;;;;2.17;0.77;;;;;;;;;;10449893;28;20223;-76
2022/05/28 10:26:36;;;;;;;5.07;1.38;;;;;;;;;;10441198;28;20233;-76
2022/05/28 10:31:40;;;;;;;7.38;1.20;;;;;;;;;;10430170;28;20682;-76
2022/05/28 10:36:41;;;;;;;3.30;1.02;;;;;;;;;;10449409;28;20292;-76
2022/05/28 10:41:42;;;;;;;8.13;1.63;;;;;;;;;;10451316;28;20356;-76
2022/05/28 10:46:58;;;;;;;5.93;1.58;;;;;;;;;;10436941;28;20576;-76
2022/05/28 10:52:18;;;;;;;4.55;1.38;;;;;;;;;;10440509;28;20214;-76
2022/05/28 10:57:38;;;;;;;5.85;1.23;;;;;;;;;;10449313;28;20198;-74
2022/05/28 11:02:39;;;;;;;2.30;0.80;;;;;;;;;;10449921;28;20562;-76
2022/05/28 11:07:51;;;;;;;3.10;0.77;;;;;;;;;;10437228;28;20223;-75
2022/05/28 11:13:12;;;;;;;3.33;0.63;;;;;;;;;;10443227;28;20383;-75
2022/05/28 11:18:25;;;;;;;1.45;0.70;;;;;;;;;;10442414;28;20290;-75
2022/05/28 11:23:45;;;;;;;0.90;0.60;;;;;;;;;;10445389;28;20324;-75
2022/05/28 11:28:52;;;;;;;1.83;0.70;;;;;;;;;;10447190;28;20206;-74
2022/05/28 11:33:55;;;;;;;4.40;1.02;;;;;;;;;;10447506;28;20218;-74
2022/05/28 11:39:03;;;;;;;3.90;0.80;;;;;;;;;;10451374;28;20199;-75
2022/05/28 11:44:14;;;;;;;2.00;1.05;;;;;;;;;;10438533;28;20199;-74
2022/05/28 11:54:50;;;;;;;3.30;1.02;;;;;;;;;;10433600;28;20207;-75
2022/05/28 11:59:51;;;;;;;2.47;1.00;;;;;;;;;;10442003;28;20205;-76
2022/05/28 12:04:53;;;;;;;4.78;0.90;;;;;;;;;;10429517;28;20813;-75
2022/05/28 12:09:54;;;;;;;8.20;4.60;;;;;;;;;;10423744;28;20851;-76
2022/05/28 12:15:04;;;;;;;4.40;1.33;;;;;;;;;;10450024;28;20217;-79
2022/05/28 12:20:10;;;;;;;2.70;1.50;;;;;;;;;;10435911;28;20199;-80
2022/05/28 12:25:15;;;;;;;2.97;0.90;;;;;;;;;;10442626;28;20316;-80
2022/05/28 12:30:29;;;;;;;2.75;1.02;;;;;;;;;;10437288;28;20207;-80
2022/05/28 12:35:47;;;;;;;2.13;1.10;;;;;;;;;;10406233;28;20301;-79
2022/05/28 12:40:54;;;;;;;2.40;0.85;;;;;;;;;;10455685;28;20210;-79
2022/05/28 12:45:56;;;;;;;1.58;1.08;;;;;;;;;;10452325;28;20203;-80
2022/05/28 12:51:16;;;;;;;2.83;1.42;;;;;;;;;;10462388;28;20220;-78
2022/05/28 12:56:23;;;;;;;2.78;1.55;;;;;;;;;;10457949;28;20206;-77
2022/05/28 13:01:28;;;;;;;1.17;0.82;;;;;;;;;;10462890;28;20843;-78
2022/05/28 13:06:34;;;;;;;2.40;0.70;;;;;;;;;;10433628;28;20260;-77
2022/05/28 13:11:38;;;;;;;3.03;1.08;;;;;;;;;;10448683;28;20724;-77
2022/05/28 13:16:39;;;;;;;1.83;0.80;;;;;;;;;;10429669;28;20207;-77
2022/05/28 13:21:50;;;;;;;3.53;0.77;;;;;;;;;;10431185;28;20293;-78
2022/05/28 13:27:09;;;;;;;3.40;1.08;;;;;;;;;;10428372;28;20277;-77
2022/05/28 13:32:13;;;;;;;2.42;0.90;;;;;;;;;;10449860;28;20249;-76
2022/05/28 13:37:19;;;;;;;3.58;0.70;;;;;;;;;;10448380;28;20217;-77
2022/05/28 13:42:20;;;;;;;2.78;0.70;;;;;;;;;;10449807;28;20286;-75
2022/05/28 13:47:29;;;;;;;0.90;0.65;;;;;;;;;;10446835;28;20333;-77
2022/05/28 13:52:31;;;;;;;5.80;0.93;;;;;;;;;;10437532;28;20805;-77
2022/05/28 13:57:40;;;;;;;6.00;1.30;;;;;;;;;;10457006;28;20532;-77
2022/05/28 14:02:41;;;;;;;2.83;0.50;;;;;;;;;;10460147;28;20233;-75
2022/05/28 14:07:43;;;;;;;6.63;0.73;;;;;;;;;;10455963;28;20230;-77
2022/05/28 14:12:45;;;;;;;1.30;0.55;;;;;;;;;;10457327;28;20209;-76
2022/05/28 14:17:46;;;;;;;3.33;0.60;;;;;;;;;;10455096;28;20199;-77
2022/05/28 14:22:49;;;;;;;1.15;0.57;;;;;;;;;;10447840;28;20208;-75
2022/05/28 14:27:51;;;;;;;2.55;0.70;;;;;;;;;;10441287;28;20313;-76
2022/05/28 14:32:53;;;;;;;4.15;0.80;;;;;;;;;;10419932;28;20285;-76
2022/05/28 14:37:58;;;;;;;3.28;0.70;;;;;;;;;;10421867;28;20593;-78
2022/05/28 14:43:00;;;;;;;2.60;0.70;;;;;;;;;;10432753;28;20210;-77
2022/05/28 14:48:03;;;;;;;2.53;0.70;;;;;;;;;;10409130;28;20198;-77
2022/05/28 14:53:04;;;;;;;5.13;0.85;;;;;;;;;;10390937;28;20210;-77
2022/05/28 14:58:25;;;;;;;3.95;0.90;;;;;;;;;;10412741;28;20215;-75
2022/05/28 15:03:34;;;;;;;3.05;0.80;;;;;;;;;;10435808;28;20248;-77
2022/05/28 15:08:35;;;;;;;3.53;0.70;;;;;;;;;;10379910;28;20233;-77
2022/05/28 15:13:36;;;;;;;5.82;1.00;;;;;;;;;;10359459;28;20199;-75
2022/05/28 15:18:37;;;;;;;6.40;1.17;;;;;;;;;;10335316;28;20211;-78
2022/05/28 15:23:38;;;;;;;6.28;1.13;;;;;;;;;;10350907;28;20262;-76
2022/05/28 15:28:39;;;;;;;6.82;1.20;;;;;;;;;;10380839;28;20249;-77
2022/05/28 15:33:40;;;;;;;4.00;0.82;;;;;;;;;;10378591;28;21475;-77
2022/05/28 15:38:41;;;;;;;5.47;1.35;;;;;;;;;;10376689;28;20202;-77
2022/05/28 15:43:42;;;;;;;6.82;1.42;;;;;;;;;;10372834;28;20199;-76
2022/05/28 15:48:43;;;;;;;5.43;1.88;;;;;;;;;;10375281;28;20203;-75
2022/05/28 15:53:44;;;;;;;6.55;2.00;;;;;;;;;;10350898;28;20203;-77
2022/05/28 15:58:45;;;;;;;7.78;1.88;;;;;;;;;;10355862;28;20207;-76
2022/05/28 16:03:47;;;;;;;4.85;1.33;;;;;;;;;;10376283;28;20219;-77
2022/05/28 16:08:48;;;;;;;5.82;2.10;;;;;;;;;;10421307;28;20232;-77
2022/05/28 16:13:49;;;;;;;9.02;4.80;;;;;;;;;;10422521;28;20344;-76
2022/05/28 16:18:53;;;;;;;8.25;2.95;;;;;;;;;;10462151;28;20195;-76
2022/05/28 16:23:54;;;;;;;9.85;2.13;;;;;;;;;;10415295;28;20233;-77
2022/05/28 16:28:57;;;;;;;8.93;1.30;;;;;;;;;;10410571;28;20209;-76
2022/05/28 16:33:58;;;;;;;6.05;2.05;;;;;;;;;;10441534;28;20227;-75
2022/05/28 16:38:59;;;;;;;3.50;1.25;;;;;;;;;;10416321;28;20230;-74
2022/05/28 16:44:03;;;;;;;2.30;0.80;;;;;;;;;;10451220;28;20278;-75
2022/05/28 16:49:04;;;;;;;7.38;1.08;;;;;;;;;;10443425;28;20210;-76
2022/05/28 16:54:05;;;;;;;4.05;0.90;;;;;;;;;;10439579;28;20955;-75
2022/05/28 16:59:07;;;;;;;3.05;1.50;;;;;;;;;;10436775;28;20244;-76
2022/05/28 17:04:08;;;;;;;4.57;1.52;;;;;;;;;;10420138;28;20221;-76
2022/05/28 17:09:09;;;;;;;6.30;2.83;;;;;;;;;;10420602;28;20578;-75
2022/05/28 17:14:10;;;;;;;2.95;0.98;;;;;;;;;;10406866;28;20616;-75
2022/05/28 17:19:11;;;;;;;4.50;2.10;;;;;;;;;;10429454;28;20209;-75
2022/05/28 17:24:31;;;;;;;8.60;2.28;;;;;;;;;;10419273;28;20214;-77
2022/05/28 17:29:33;;;;;;;10.70;5.28;;;;;;;;;;10447257;28;20201;-76
2022/05/28 17:34:35;;;;;;;4.80;1.45;;;;;;;;;;10445147;28;20873;-76
2022/05/28 17:39:36;;;;;;;4.88;1.73;;;;;;;;;;10440256;28;20201;-75
2022/05/28 17:44:37;;;;;;;2.80;1.00;;;;;;;;;;10438219;28;20290;-73
2022/05/28 17:49:39;;;;;;;1.67;0.68;;;;;;;;;;10439498;28;20214;-75
2022/05/28 17:54:40;;;;;;;2.95;0.70;;;;;;;;;;10446389;28;20548;-74
2022/05/28 17:59:41;;;;;;;3.80;0.90;;;;;;;;;;10463238;28;21011;-77
2022/05/28 18:04:42;;;;;;;4.13;0.93;;;;;;;;;;10461288;28;20309;-77
2022/05/28 18:09:43;;;;;;;4.70;0.75;;;;;;;;;;10461076;28;20206;-75
2022/05/28 18:14:45;;;;;;;1.63;0.65;;;;;;;;;;10460478;28;20219;-75
2022/05/28 18:19:48;;;;;;;3.67;0.95;;;;;;;;;;10460578;28;20210;-75
2022/05/28 18:24:50;;;;;;;9.13;1.33;;;;;;;;;;10455069;28;20210;-75
2022/05/28 18:29:51;;;;;;;6.18;1.10;;;;;;;;;;10463899;28;20230;-75
2022/05/28 18:34:52;;;;;;;4.05;0.90;;;;;;;;;;10424436;28;20248;-75
2022/05/28 18:39:53;;;;;;;7.50;1.13;;;;;;;;;;10456772;28;20210;-74
2022/05/28 18:44:54;;;;;;;3.50;0.80;;;;;;;;;;10458873;28;20297;-75
2022/05/28 18:49:55;;;;;;;3.88;0.70;;;;;;;;;;10459241;28;20206;-75
2022/05/28 18:54:56;;;;;;;4.22;0.90;;;;;;;;;;10458765;28;20202;-75
2022/05/28 18:59:58;;;;;;;3.47;0.80;;;;;;;;;;10429423;28;20287;-75
2022/05/28 19:04:59;;;;;;;2.90;0.90;;;;;;;;;;10459068;28;20230;-73
2022/05/28 19:10:03;;;;;;;5.38;0.90;;;;;;;;;;10457312;28;20206;-74
2022/05/28 19:15:08;;;;;;;4.32;0.80;;;;;;;;;;10443598;28;20211;-74
2022/05/28 19:20:11;;;;;;;2.95;1.00;;;;;;;;;;10456075;28;20238;-74
2022/05/28 19:30:33;;;;;;;5.00;1.52;;;;;;;;;;10452408;28;20329;-74
2022/05/28 19:35:34;;;;;;;5.55;0.98;;;;;;;;;;10452656;28;20201;-73
2022/05/28 19:40:35;;;;;;;3.17;0.80;;;;;;;;;;10448843;28;20221;-73
2022/05/28 19:45:42;;;;;;;8.23;1.15;;;;;;;;;;10451808;28;20191;-74
2022/05/28 19:50:43;;;;;;;5.53;0.90;;;;;;;;;;10451875;28;20195;-74
2022/05/28 19:55:45;;;;;;;7.38;1.02;;;;;;;;;;10432445;28;20197;-73
2022/05/28 20:00:46;;;;;;;4.60;0.80;;;;;;;;;;10452613;28;20280;-74
2022/05/28 20:05:47;;;;;;;6.15;1.02;;;;;;;;;;10452864;28;20236;-74
2022/05/28 20:10:49;;;;;;;6.90;1.00;;;;;;;;;;10458835;28;20213;-74
2022/05/28 20:15:50;;;;;;;4.45;0.82;;;;;;;;;;10445913;28;20194;-74
2022/05/28 20:20:51;;;;;;;4.10;1.05;;;;;;;;;;10449388;28;20206;-74
2022/05/28 20:25:52;;;;;;;7.70;1.10;;;;;;;;;;10437615;28;20208;-74
2022/05/28 20:30:53;;;;;;;6.72;0.98;;;;;;;;;;10452797;28;20222;-74
2022/05/28 20:35:55;;;;;;;6.30;0.90;;;;;;;;;;10437475;28;20198;-73
2022/05/28 20:40:56;;;;;;;4.35;0.77;;;;;;;;;;10459158;28;20229;-74
2022/05/28 20:46:01;;;;;;;1.45;0.90;;;;;;;;;;10429275;28;20886;-74
2022/05/28 20:51:03;;;;;;;8.40;1.10;;;;;;;;;;10455341;28;20202;-74
2022/05/28 20:56:05;;;;;;;2.50;0.70;;;;;;;;;;10443208;28;20297;-74
2022/05/28 21:01:07;;;;;;;6.13;1.40;;;;;;;;;;10438450;28;20264;-74
2022/05/28 21:06:16;;;;;;;5.93;1.02;;;;;;;;;;10457567;28;20650;-74
2022/05/28 21:11:19;;;;;;;4.90;1.05;;;;;;;;;;10437052;28;20728;-74
2022/05/28 21:16:21;;;;;;;5.45;1.05;;;;;;;;;;10458267;28;20247;-73
2022/05/28 21:21:24;;;;;;;2.15;1.27;;;;;;;;;;10464176;28;20248;-74
2022/05/28 21:31:45;;;;;;;3.80;1.10;;;;;;;;;;10467873;28;20221;-75
2022/05/28 21:36:47;;;;;;;4.55;0.95;;;;;;;;;;10446984;28;20700;-74
2022/05/28 21:41:48;;;;;;;3.22;0.73;;;;;;;;;;10463821;28;20803;-74
2022/05/28 21:46:49;;;;;;;1.88;0.82;;;;;;;;;;10451644;28;20206;-73
2022/05/28 21:51:50;;;;;;;6.00;0.98;;;;;;;;;;10467850;28;20210;-73
2022/05/28 21:56:52;;;;;;;6.07;1.35;;;;;;;;;;10466845;28;20194;-73
2022/05/28 22:01:53;;;;;;;5.43;1.23;;;;;;;;;;10462200;28;20210;-74
2022/05/28 22:06:54;;;;;;;6.03;1.23;;;;;;;;;;10446376;28;20234;-74
2022/05/28 22:11:56;;;;;;;1.48;0.65;;;;;;;;;;10456883;28;20216;-74
2022/05/28 22:16:57;;;;;;;3.47;0.85;;;;;;;;;;10441858;28;20207;-74
2022/05/28 22:21:58;;;;;;;4.72;0.90;;;;;;;;;;10441049;28;20225;-74
2022/05/28 22:27:00;;;;;;;1.42;0.88;;;;;;;;;;10440955;28;20198;-73
2022/05/28 22:32:01;;;;;;;3.22;1.13;;;;;;;;;;10445175;28;20249;-74
2022/05/28 22:37:02;;;;;;;6.93;1.02;;;;;;;;;;10446633;28;20222;-74
2022/05/28 22:42:03;;;;;;;5.82;1.20;;;;;;;;;;10456863;28;20234;-74
2022/05/28 22:47:04;;;;;;;5.15;1.10;;;;;;;;;;10460337;28;20234;-74
2022/05/28 22:52:07;;;;;;;4.32;1.25;;;;;;;;;;10459172;28;20198;-74
2022/05/28 22:57:09;;;;;;;2.03;0.90;;;;;;;;;;10431987;28;20206;-74
2022/05/28 23:02:10;;;;;;;5.30;0.93;;;;;;;;;;10435518;28;20218;-75
2022/05/28 23:07:11;;;;;;;2.50;1.15;;;;;;;;;;10417276;28;20942;-73
2022/05/28 23:12:12;;;;;;;3.90;0.80;;;;;;;;;;10462712;28;20209;-73
2022/05/28 23:17:15;;;;;;;2.83;1.48;;;;;;;;;;10458112;28;20197;-74
2022/05/28 23:22:17;;;;;;;5.97;1.17;;;;;;;;;;10458710;28;20202;-74
2022/05/28 23:27:18;;;;;;;2.55;1.23;;;;;;;;;;10443070;28;20197;-73
2022/05/28 23:32:19;;;;;;;6.38;1.27;;;;;;;;;;10425090;28;20221;-74
2022/05/28 23:37:20;;;;;;;1.10;1.00;;;;;;;;;;10458491;28;20206;-74
2022/05/28 23:42:21;;;;;;;5.35;1.70;;;;;;;;;;10433738;28;20268;-73
2022/05/28 23:47:25;;;;;;;4.50;1.60;;;;;;;;;;10436642;28;20313;-74
2022/05/28 23:52:26;;;;;;;6.75;1.48;;;;;;;;;;10445026;28;20209;-74
2022/05/28 23:57:27;;;;;;;5.55;1.30;;;;;;;;;;10440634;28;20202;-74
